sensor_id;sensor_type;location;lat;lon;timestamp;P1;durP1;ratioP1;P2;durP2;ratioP2
42964;SDS011;28604;51.204;22.552;2024-01-15T00:02:11;27.27;;;13.30;;
42964;SDS011;28604;51.204;22.552;2024-01-15T00:04:40;22.25;;;12.50;;
42964;SDS011;28604;51.204;22.552;2024-01-15T00:07:07;20.20;;;11.73;;
42964;SDS011;28604;51.204;22.552;2024-01-15T00:09:33;24.30;;;13.20;;
42964;SDS011;28604;51.204;22.552;2024-01-15T00:12:00;19.13;;;12.07;;
42964;SDS011;28604;51.204;22.552;2024-01-15T00:14:27;23.50;;;12.90;;
42964;SDS011;28604;51.204;22.552;2024-01-15T00:16:53;24.52;;;13.05;;
42964;SDS011;28604;51.204;22.552;2024-01-15T00:19:20;24.73;;;13.80;;
42964;SDS011;28604;51.204;22.552;2024-01-15T00:21:47;24.38;;;13.35;;
42964;SDS011;28604;51.204;22.552;2024-01-15T00:24:13;28.48;;;13.57;;
42964;SDS011;28604;51.204;22.552;2024-01-15T00:26:39;26.20;;;14.45;;
42964;SDS011;28604;51.204;22.552;2024-01-15T00:29:06;31.63;;;15.05;;
42964;SDS011;28604;51.204;22.552;2024-01-15T00:31:33;22.00;;;12.48;;
42964;SDS011;28604;51.204;22.552;2024-01-15T00:33:59;23.30;;;12.25;;
42964;SDS011;28604;51.204;22.552;2024-01-15T00:36:25;21.85;;;12.80;;
42964;SDS011;28604;51.204;22.552;2024-01-15T00:38:51;24.98;;;13.05;;
42964;SDS011;28604;51.204;22.552;2024-01-15T00:41:18;23.33;;;13.73;;
42964;SDS011;28604;51.204;22.552;2024-01-15T00:43:44;23.08;;;13.05;;
42964;SDS011;28604;51.204;22.552;2024-01-15T00:46:11;26.38;;;12.95;;
42964;SDS011;28604;51.204;22.552;2024-01-15T00:48:37;23.25;;;13.32;;
42964;SDS011;28604;51.204;22.552;2024-01-15T00:51:06;26.20;;;13.07;;
42964;SDS011;28604;51.204;22.552;2024-01-15T00:53:32;20.85;;;12.02;;
42964;SDS011;28604;51.204;22.552;2024-01-15T00:55:58;27.17;;;13.70;;
42964;SDS011;28604;51.204;22.552;2024-01-15T00:58:25;26.85;;;12.93;;
42964;SDS011;28604;51.204;22.552;2024-01-15T01:00:52;24.20;;;12.60;;
42964;SDS011;28604;51.204;22.552;2024-01-15T01:03:18;25.48;;;13.43;;
42964;SDS011;28604;51.204;22.552;2024-01-15T01:05:44;27.63;;;13.93;;
42964;SDS011;28604;51.204;22.552;2024-01-15T01:08:10;26.40;;;13.15;;
42964;SDS011;28604;51.204;22.552;2024-01-15T01:10:37;25.60;;;13.68;;
42964;SDS011;28604;51.204;22.552;2024-01-15T01:13:02;24.63;;;13.98;;
42964;SDS011;28604;51.204;22.552;2024-01-15T01:15:29;29.48;;;13.35;;
42964;SDS011;28604;51.204;22.552;2024-01-15T01:17:55;25.95;;;13.60;;
42964;SDS011;28604;51.204;22.552;2024-01-15T01:20:21;25.67;;;12.35;;
42964;SDS011;28604;51.204;22.552;2024-01-15T01:22:46;24.92;;;13.73;;
42964;SDS011;28604;51.204;22.552;2024-01-15T01:25:12;24.13;;;13.05;;
42964;SDS011;28604;51.204;22.552;2024-01-15T01:27:39;26.95;;;13.63;;
42964;SDS011;28604;51.204;22.552;2024-01-15T01:30:05;26.75;;;14.32;;
42964;SDS011;28604;51.204;22.552;2024-01-15T01:32:31;26.08;;;12.90;;
42964;SDS011;28604;51.204;22.552;2024-01-15T01:34:57;22.63;;;11.45;;
42964;SDS011;28604;51.204;22.552;2024-01-15T01:37:23;25.10;;;12.88;;
42964;SDS011;28604;51.204;22.552;2024-01-15T01:39:49;28.60;;;13.90;;
42964;SDS011;28604;51.204;22.552;2024-01-15T01:42:15;22.45;;;12.27;;
42964;SDS011;28604;51.204;22.552;2024-01-15T01:44:41;24.50;;;13.38;;
42964;SDS011;28604;51.204;22.552;2024-01-15T01:47:07;23.52;;;12.80;;
42964;SDS011;28604;51.204;22.552;2024-01-15T01:49:33;22.65;;;11.70;;
42964;SDS011;28604;51.204;22.552;2024-01-15T01:52:01;25.38;;;12.57;;
42964;SDS011;28604;51.204;22.552;2024-01-15T01:54:31;26.23;;;12.90;;
42964;SDS011;28604;51.204;22.552;2024-01-15T01:56:58;23.27;;;12.25;;
42964;SDS011;28604;51.204;22.552;2024-01-15T01:59:25;26.65;;;13.57;;
42964;SDS011;28604;51.204;22.552;2024-01-15T02:01:54;24.42;;;12.80;;
42964;SDS011;28604;51.204;22.552;2024-01-15T02:04:22;23.42;;;12.00;;
42964;SDS011;28604;51.204;22.552;2024-01-15T02:06:50;22.05;;;11.68;;
42964;SDS011;28604;51.204;22.552;2024-01-15T02:09:17;23.50;;;12.07;;
42964;SDS011;28604;51.204;22.552;2024-01-15T02:11:43;23.10;;;11.82;;
42964;SDS011;28604;51.204;22.552;2024-01-15T02:14:12;20.77;;;10.57;;
42964;SDS011;28604;51.204;22.552;2024-01-15T02:16:37;21.00;;;11.98;;
42964;SDS011;28604;51.204;22.552;2024-01-15T02:19:04;18.23;;;10.07;;
42964;SDS011;28604;51.204;22.552;2024-01-15T02:21:31;21.45;;;11.18;;
42964;SDS011;28604;51.204;22.552;2024-01-15T02:23:57;24.95;;;12.50;;
42964;SDS011;28604;51.204;22.552;2024-01-15T02:26:23;23.63;;;10.98;;
42964;SDS011;28604;51.204;22.552;2024-01-15T02:28:50;20.17;;;10.98;;
42964;SDS011;28604;51.204;22.552;2024-01-15T02:31:16;24.73;;;11.82;;
42964;SDS011;28604;51.204;22.552;2024-01-15T02:33:43;21.42;;;11.05;;
42964;SDS011;28604;51.204;22.552;2024-01-15T02:36:11;19.52;;;11.02;;
42964;SDS011;28604;51.204;22.552;2024-01-15T02:38:37;21.45;;;10.27;;
42964;SDS011;28604;51.204;22.552;2024-01-15T02:41:03;24.00;;;11.38;;
42964;SDS011;28604;51.204;22.552;2024-01-15T02:43:29;20.95;;;10.02;;
42964;SDS011;28604;51.204;22.552;2024-01-15T02:45:55;26.17;;;11.75;;
42964;SDS011;28604;51.204;22.552;2024-01-15T02:48:21;20.40;;;10.75;;
42964;SDS011;28604;51.204;22.552;2024-01-15T02:50:47;19.00;;;10.07;;
42964;SDS011;28604;51.204;22.552;2024-01-15T02:53:13;18.13;;;10.05;;
42964;SDS011;28604;51.204;22.552;2024-01-15T02:55:39;19.08;;;9.93;;
42964;SDS011;28604;51.204;22.552;2024-01-15T02:58:05;15.95;;;9.40;;
42964;SDS011;28604;51.204;22.552;2024-01-15T03:00:31;19.35;;;10.18;;
42964;SDS011;28604;51.204;22.552;2024-01-15T03:02:57;18.58;;;8.98;;
42964;SDS011;28604;51.204;22.552;2024-01-15T03:05:23;17.17;;;10.35;;
42964;SDS011;28604;51.204;22.552;2024-01-15T03:07:49;17.45;;;9.07;;
42964;SDS011;28604;51.204;22.552;2024-01-15T03:10:14;17.65;;;8.75;;
42964;SDS011;28604;51.204;22.552;2024-01-15T03:12:41;17.58;;;10.00;;
42964;SDS011;28604;51.204;22.552;2024-01-15T03:15:07;16.95;;;9.20;;
42964;SDS011;28604;51.204;22.552;2024-01-15T03:17:33;16.48;;;8.57;;
42964;SDS011;28604;51.204;22.552;2024-01-15T03:19:59;16.30;;;8.73;;
42964;SDS011;28604;51.204;22.552;2024-01-15T03:22:25;16.33;;;8.52;;
42964;SDS011;28604;51.204;22.552;2024-01-15T03:24:52;14.32;;;7.70;;
42964;SDS011;28604;51.204;22.552;2024-01-15T03:27:18;16.23;;;8.88;;
42964;SDS011;28604;51.204;22.552;2024-01-15T03:29:44;18.70;;;9.10;;
42964;SDS011;28604;51.204;22.552;2024-01-15T03:32:10;16.02;;;9.63;;
42964;SDS011;28604;51.204;22.552;2024-01-15T03:34:36;18.73;;;9.40;;
42964;SDS011;28604;51.204;22.552;2024-01-15T03:37:02;17.30;;;8.55;;
42964;SDS011;28604;51.204;22.552;2024-01-15T03:39:28;15.30;;;8.57;;
42964;SDS011;28604;51.204;22.552;2024-01-15T03:41:55;15.77;;;8.63;;
42964;SDS011;28604;51.204;22.552;2024-01-15T03:44:21;16.17;;;9.35;;
42964;SDS011;28604;51.204;22.552;2024-01-15T03:46:47;17.40;;;8.10;;
42964;SDS011;28604;51.204;22.552;2024-01-15T03:49:12;14.18;;;8.60;;
42964;SDS011;28604;51.204;22.552;2024-01-15T03:51:38;14.50;;;7.78;;
42964;SDS011;28604;51.204;22.552;2024-01-15T03:54:04;14.60;;;7.75;;
42964;SDS011;28604;51.204;22.552;2024-01-15T03:56:30;14.80;;;7.20;;
42964;SDS011;28604;51.204;22.552;2024-01-15T03:58:56;15.65;;;7.65;;
42964;SDS011;28604;51.204;22.552;2024-01-15T04:01:22;11.75;;;6.85;;
42964;SDS011;28604;51.204;22.552;2024-01-15T04:03:48;12.18;;;7.15;;
42964;SDS011;28604;51.204;22.552;2024-01-15T04:06:14;8.30;;;5.38;;
42964;SDS011;28604;51.204;22.552;2024-01-15T04:08:40;12.10;;;7.03;;
42964;SDS011;28604;51.204;22.552;2024-01-15T04:11:06;16.10;;;6.70;;
42964;SDS011;28604;51.204;22.552;2024-01-15T04:13:32;12.15;;;6.85;;
42964;SDS011;28604;51.204;22.552;2024-01-15T04:15:58;11.25;;;6.38;;
42964;SDS011;28604;51.204;22.552;2024-01-15T04:18:25;12.20;;;7.05;;
42964;SDS011;28604;51.204;22.552;2024-01-15T04:20:51;10.95;;;5.85;;
42964;SDS011;28604;51.204;22.552;2024-01-15T04:23:17;9.52;;;5.63;;
42964;SDS011;28604;51.204;22.552;2024-01-15T04:25:43;11.48;;;6.85;;
42964;SDS011;28604;51.204;22.552;2024-01-15T04:28:11;10.82;;;6.43;;
42964;SDS011;28604;51.204;22.552;2024-01-15T04:30:37;9.50;;;5.63;;
42964;SDS011;28604;51.204;22.552;2024-01-15T04:33:03;11.93;;;6.15;;
42964;SDS011;28604;51.204;22.552;2024-01-15T04:35:30;11.32;;;5.60;;
42964;SDS011;28604;51.204;22.552;2024-01-15T04:37:56;9.27;;;5.65;;
42964;SDS011;28604;51.204;22.552;2024-01-15T04:40:22;8.93;;;5.38;;
42964;SDS011;28604;51.204;22.552;2024-01-15T04:42:48;8.95;;;5.20;;
42964;SDS011;28604;51.204;22.552;2024-01-15T04:45:14;6.07;;;4.15;;
42964;SDS011;28604;51.204;22.552;2024-01-15T04:47:40;9.45;;;5.07;;
42964;SDS011;28604;51.204;22.552;2024-01-15T04:50:06;8.73;;;5.38;;
42964;SDS011;28604;51.204;22.552;2024-01-15T04:52:32;9.52;;;4.90;;
42964;SDS011;28604;51.204;22.552;2024-01-15T04:54:58;12.20;;;5.47;;
42964;SDS011;28604;51.204;22.552;2024-01-15T04:57:24;7.88;;;5.15;;
42964;SDS011;28604;51.204;22.552;2024-01-15T04:59:50;9.35;;;5.15;;
42964;SDS011;28604;51.204;22.552;2024-01-15T05:02:16;8.43;;;5.03;;
42964;SDS011;28604;51.204;22.552;2024-01-15T05:04:42;8.35;;;4.30;;
42964;SDS011;28604;51.204;22.552;2024-01-15T05:07:07;7.25;;;4.57;;
42964;SDS011;28604;51.204;22.552;2024-01-15T05:09:34;10.07;;;5.00;;
42964;SDS011;28604;51.204;22.552;2024-01-15T05:11:59;9.50;;;4.93;;
42964;SDS011;28604;51.204;22.552;2024-01-15T05:14:25;10.57;;;6.47;;
42964;SDS011;28604;51.204;22.552;2024-01-15T05:16:51;8.95;;;4.95;;
42964;SDS011;28604;51.204;22.552;2024-01-15T05:19:18;11.57;;;5.10;;
42964;SDS011;28604;51.204;22.552;2024-01-15T05:21:43;9.93;;;6.18;;
42964;SDS011;28604;51.204;22.552;2024-01-15T05:24:09;8.85;;;4.65;;
42964;SDS011;28604;51.204;22.552;2024-01-15T05:26:35;6.85;;;3.88;;
42964;SDS011;28604;51.204;22.552;2024-01-15T05:29:01;11.43;;;5.18;;
42964;SDS011;28604;51.204;22.552;2024-01-15T05:31:27;11.80;;;4.70;;
42964;SDS011;28604;51.204;22.552;2024-01-15T05:33:53;11.32;;;5.80;;
42964;SDS011;28604;51.204;22.552;2024-01-15T05:36:19;8.77;;;5.18;;
42964;SDS011;28604;51.204;22.552;2024-01-15T05:38:45;7.22;;;4.13;;
42964;SDS011;28604;51.204;22.552;2024-01-15T05:41:11;8.07;;;4.57;;
42964;SDS011;28604;51.204;22.552;2024-01-15T05:43:38;9.10;;;5.28;;
42964;SDS011;28604;51.204;22.552;2024-01-15T05:46:04;8.50;;;4.28;;
42964;SDS011;28604;51.204;22.552;2024-01-15T05:48:30;10.20;;;5.72;;
42964;SDS011;28604;51.204;22.552;2024-01-15T05:50:56;5.55;;;3.40;;
42964;SDS011;28604;51.204;22.552;2024-01-15T05:53:22;4.80;;;3.75;;
42964;SDS011;28604;51.204;22.552;2024-01-15T05:55:48;4.88;;;3.60;;
42964;SDS011;28604;51.204;22.552;2024-01-15T05:58:14;4.72;;;3.30;;
42964;SDS011;28604;51.204;22.552;2024-01-15T06:00:39;8.93;;;5.07;;
42964;SDS011;28604;51.204;22.552;2024-01-15T06:03:05;4.75;;;3.22;;
42964;SDS011;28604;51.204;22.552;2024-01-15T06:05:32;7.65;;;4.30;;
42964;SDS011;28604;51.204;22.552;2024-01-15T06:07:58;5.45;;;3.30;;
42964;SDS011;28604;51.204;22.552;2024-01-15T06:10:24;5.15;;;3.90;;
42964;SDS011;28604;51.204;22.552;2024-01-15T06:12:50;7.65;;;4.25;;
42964;SDS011;28604;51.204;22.552;2024-01-15T06:15:16;6.75;;;3.55;;
42964;SDS011;28604;51.204;22.552;2024-01-15T06:17:42;8.90;;;4.40;;
42964;SDS011;28604;51.204;22.552;2024-01-15T06:20:08;5.45;;;3.22;;
42964;SDS011;28604;51.204;22.552;2024-01-15T06:22:35;6.53;;;3.67;;
42964;SDS011;28604;51.204;22.552;2024-01-15T06:25:02;5.72;;;3.15;;
42964;SDS011;28604;51.204;22.552;2024-01-15T06:27:28;5.15;;;3.88;;
42964;SDS011;28604;51.204;22.552;2024-01-15T06:29:54;6.22;;;4.25;;
42964;SDS011;28604;51.204;22.552;2024-01-15T06:32:21;6.40;;;3.72;;
42964;SDS011;28604;51.204;22.552;2024-01-15T06:34:47;9.15;;;3.97;;
42964;SDS011;28604;51.204;22.552;2024-01-15T06:37:13;6.13;;;3.42;;
42964;SDS011;28604;51.204;22.552;2024-01-15T06:39:39;5.30;;;3.58;;
42964;SDS011;28604;51.204;22.552;2024-01-15T06:42:05;5.47;;;3.88;;
42964;SDS011;28604;51.204;22.552;2024-01-15T06:44:31;6.78;;;3.58;;
42964;SDS011;28604;51.204;22.552;2024-01-15T06:46:57;10.07;;;4.20;;
42964;SDS011;28604;51.204;22.552;2024-01-15T06:49:28;4.40;;;3.08;;
42964;SDS011;28604;51.204;22.552;2024-01-15T06:51:55;4.75;;;3.30;;
42964;SDS011;28604;51.204;22.552;2024-01-15T06:54:21;5.03;;;2.97;;
42964;SDS011;28604;51.204;22.552;2024-01-15T06:56:47;6.45;;;3.53;;
42964;SDS011;28604;51.204;22.552;2024-01-15T06:59:13;4.13;;;2.95;;
42964;SDS011;28604;51.204;22.552;2024-01-15T07:01:39;4.95;;;3.33;;
42964;SDS011;28604;51.204;22.552;2024-01-15T07:04:05;4.80;;;3.00;;
42964;SDS011;28604;51.204;22.552;2024-01-15T07:06:31;4.07;;;2.42;;
42964;SDS011;28604;51.204;22.552;2024-01-15T07:08:57;4.55;;;2.75;;
42964;SDS011;28604;51.204;22.552;2024-01-15T07:11:23;6.50;;;3.10;;
42964;SDS011;28604;51.204;22.552;2024-01-15T07:13:49;5.75;;;3.38;;
42964;SDS011;28604;51.204;22.552;2024-01-15T07:16:15;4.45;;;2.90;;
42964;SDS011;28604;51.204;22.552;2024-01-15T07:18:41;5.03;;;3.03;;
42964;SDS011;28604;51.204;22.552;2024-01-15T07:21:07;4.38;;;3.10;;
42964;SDS011;28604;51.204;22.552;2024-01-15T07:23:33;7.65;;;2.78;;
42964;SDS011;28604;51.204;22.552;2024-01-15T07:25:59;6.13;;;3.20;;
42964;SDS011;28604;51.204;22.552;2024-01-15T07:28:24;5.40;;;2.28;;
42964;SDS011;28604;51.204;22.552;2024-01-15T07:30:51;6.10;;;2.60;;
42964;SDS011;28604;51.204;22.552;2024-01-15T07:33:17;7.28;;;2.78;;
42964;SDS011;28604;51.204;22.552;2024-01-15T07:35:43;6.95;;;3.15;;
42964;SDS011;28604;51.204;22.552;2024-01-15T07:38:09;6.07;;;3.15;;
42964;SDS011;28604;51.204;22.552;2024-01-15T07:40:37;3.63;;;2.45;;
42964;SDS011;28604;51.204;22.552;2024-01-15T07:43:03;6.10;;;3.60;;
42964;SDS011;28604;51.204;22.552;2024-01-15T07:45:29;7.70;;;4.28;;
42964;SDS011;28604;51.204;22.552;2024-01-15T07:47:55;6.53;;;3.78;;
42964;SDS011;28604;51.204;22.552;2024-01-15T07:50:22;8.35;;;3.63;;
42964;SDS011;28604;51.204;22.552;2024-01-15T07:52:47;7.00;;;3.72;;
42964;SDS011;28604;51.204;22.552;2024-01-15T07:55:14;8.38;;;3.72;;
42964;SDS011;28604;51.204;22.552;2024-01-15T07:57:40;5.90;;;3.78;;
42964;SDS011;28604;51.204;22.552;2024-01-15T08:00:06;6.97;;;3.20;;
42964;SDS011;28604;51.204;22.552;2024-01-15T08:02:34;5.95;;;3.47;;
42964;SDS011;28604;51.204;22.552;2024-01-15T08:05:00;6.78;;;3.55;;
42964;SDS011;28604;51.204;22.552;2024-01-15T08:07:26;8.23;;;3.42;;
42964;SDS011;28604;51.204;22.552;2024-01-15T08:09:52;8.63;;;3.70;;
42964;SDS011;28604;51.204;22.552;2024-01-15T08:12:18;5.70;;;3.20;;
42964;SDS011;28604;51.204;22.552;2024-01-15T08:14:44;5.70;;;3.67;;
42964;SDS011;28604;51.204;22.552;2024-01-15T08:17:11;6.15;;;4.28;;
42964;SDS011;28604;51.204;22.552;2024-01-15T08:19:37;5.47;;;4.07;;
42964;SDS011;28604;51.204;22.552;2024-01-15T08:22:06;7.70;;;4.15;;
42964;SDS011;28604;51.204;22.552;2024-01-15T08:24:32;6.50;;;4.35;;
42964;SDS011;28604;51.204;22.552;2024-01-15T08:26:58;7.78;;;4.35;;
42964;SDS011;28604;51.204;22.552;2024-01-15T08:29:24;4.57;;;3.47;;
42964;SDS011;28604;51.204;22.552;2024-01-15T08:31:50;4.25;;;3.25;;
42964;SDS011;28604;51.204;22.552;2024-01-15T08:34:16;5.25;;;3.90;;
42964;SDS011;28604;51.204;22.552;2024-01-15T08:36:42;5.90;;;3.88;;
42964;SDS011;28604;51.204;22.552;2024-01-15T08:39:08;6.43;;;3.17;;
42964;SDS011;28604;51.204;22.552;2024-01-15T08:41:34;5.82;;;3.63;;
42964;SDS011;28604;51.204;22.552;2024-01-15T08:44:01;5.90;;;3.35;;
42964;SDS011;28604;51.204;22.552;2024-01-15T08:46:28;7.70;;;3.88;;
42964;SDS011;28604;51.204;22.552;2024-01-15T08:48:54;5.07;;;3.50;;
42964;SDS011;28604;51.204;22.552;2024-01-15T08:51:20;5.32;;;3.33;;
42964;SDS011;28604;51.204;22.552;2024-01-15T08:53:46;6.80;;;4.80;;
42964;SDS011;28604;51.204;22.552;2024-01-15T08:56:12;6.35;;;4.13;;
42964;SDS011;28604;51.204;22.552;2024-01-15T08:58:39;9.43;;;4.65;;
42964;SDS011;28604;51.204;22.552;2024-01-15T09:01:05;8.65;;;5.60;;
42964;SDS011;28604;51.204;22.552;2024-01-15T09:03:31;9.68;;;4.35;;
42964;SDS011;28604;51.204;22.552;2024-01-15T09:05:57;8.15;;;4.65;;
42964;SDS011;28604;51.204;22.552;2024-01-15T09:08:23;6.50;;;4.50;;
42964;SDS011;28604;51.204;22.552;2024-01-15T09:10:50;9.95;;;5.15;;
42964;SDS011;28604;51.204;22.552;2024-01-15T09:13:16;7.20;;;4.95;;
42964;SDS011;28604;51.204;22.552;2024-01-15T09:15:42;9.98;;;5.03;;
42964;SDS011;28604;51.204;22.552;2024-01-15T09:18:08;7.47;;;4.55;;
42964;SDS011;28604;51.204;22.552;2024-01-15T09:20:34;8.32;;;4.53;;
42964;SDS011;28604;51.204;22.552;2024-01-15T09:23:00;8.07;;;4.30;;
42964;SDS011;28604;51.204;22.552;2024-01-15T09:25:26;8.10;;;4.78;;
42964;SDS011;28604;51.204;22.552;2024-01-15T09:27:52;7.97;;;5.03;;
42964;SDS011;28604;51.204;22.552;2024-01-15T09:30:19;9.32;;;4.97;;
42964;SDS011;28604;51.204;22.552;2024-01-15T09:32:45;10.15;;;5.25;;
42964;SDS011;28604;51.204;22.552;2024-01-15T09:35:11;5.63;;;4.60;;
42964;SDS011;28604;51.204;22.552;2024-01-15T09:37:37;7.75;;;4.60;;
42964;SDS011;28604;51.204;22.552;2024-01-15T09:40:05;8.65;;;5.10;;
42964;SDS011;28604;51.204;22.552;2024-01-15T09:42:33;11.23;;;5.60;;
42964;SDS011;28604;51.204;22.552;2024-01-15T09:45:00;9.82;;;5.05;;
42964;SDS011;28604;51.204;22.552;2024-01-15T09:47:29;9.32;;;5.45;;
42964;SDS011;28604;51.204;22.552;2024-01-15T09:49:55;7.93;;;4.97;;
42964;SDS011;28604;51.204;22.552;2024-01-15T09:52:24;10.00;;;6.55;;
42964;SDS011;28604;51.204;22.552;2024-01-15T09:54:50;12.23;;;6.57;;
42964;SDS011;28604;51.204;22.552;2024-01-15T09:57:17;10.60;;;5.50;;
42964;SDS011;28604;51.204;22.552;2024-01-15T09:59:43;12.00;;;5.70;;
42964;SDS011;28604;51.204;22.552;2024-01-15T10:02:11;7.47;;;4.82;;
42964;SDS011;28604;51.204;22.552;2024-01-15T10:04:39;9.82;;;5.15;;
42964;SDS011;28604;51.204;22.552;2024-01-15T10:07:06;8.25;;;4.93;;
42964;SDS011;28604;51.204;22.552;2024-01-15T10:09:34;6.20;;;5.03;;
42964;SDS011;28604;51.204;22.552;2024-01-15T10:12:00;7.00;;;5.15;;
42964;SDS011;28604;51.204;22.552;2024-01-15T10:14:26;8.80;;;5.38;;
42964;SDS011;28604;51.204;22.552;2024-01-15T10:16:52;8.15;;;5.03;;
42964;SDS011;28604;51.204;22.552;2024-01-15T10:19:18;10.27;;;4.63;;
42964;SDS011;28604;51.204;22.552;2024-01-15T10:21:44;8.25;;;5.28;;
42964;SDS011;28604;51.204;22.552;2024-01-15T10:24:12;12.25;;;5.65;;
42964;SDS011;28604;51.204;22.552;2024-01-15T10:26:38;10.65;;;5.63;;
42964;SDS011;28604;51.204;22.552;2024-01-15T10:29:04;7.53;;;4.82;;
42964;SDS011;28604;51.204;22.552;2024-01-15T10:31:30;13.07;;;6.15;;
42964;SDS011;28604;51.204;22.552;2024-01-15T10:34:12;12.50;;;6.65;;
42964;SDS011;28604;51.204;22.552;2024-01-15T10:36:40;8.43;;;5.70;;
42964;SDS011;28604;51.204;22.552;2024-01-15T10:39:06;8.63;;;5.15;;
42964;SDS011;28604;51.204;22.552;2024-01-15T10:41:37;6.35;;;4.30;;
42964;SDS011;28604;51.204;22.552;2024-01-15T10:44:03;12.70;;;6.32;;
42964;SDS011;28604;51.204;22.552;2024-01-15T10:46:29;10.60;;;4.95;;
42964;SDS011;28604;51.204;22.552;2024-01-15T10:48:56;8.27;;;4.60;;
42964;SDS011;28604;51.204;22.552;2024-01-15T10:51:23;8.55;;;5.20;;
42964;SDS011;28604;51.204;22.552;2024-01-15T10:53:51;9.25;;;5.15;;
42964;SDS011;28604;51.204;22.552;2024-01-15T10:56:19;7.18;;;4.68;;
42964;SDS011;28604;51.204;22.552;2024-01-15T10:58:47;9.98;;;5.10;;
42964;SDS011;28604;51.204;22.552;2024-01-15T11:01:13;7.93;;;5.82;;
42964;SDS011;28604;51.204;22.552;2024-01-15T11:03:39;10.00;;;4.80;;
42964;SDS011;28604;51.204;22.552;2024-01-15T11:06:15;9.02;;;4.78;;
42964;SDS011;28604;51.204;22.552;2024-01-15T11:08:48;10.35;;;5.22;;
42964;SDS011;28604;51.204;22.552;2024-01-15T11:11:18;10.90;;;5.63;;
42964;SDS011;28604;51.204;22.552;2024-01-15T11:13:46;7.88;;;5.07;;
42964;SDS011;28604;51.204;22.552;2024-01-15T11:16:15;9.48;;;5.20;;
42964;SDS011;28604;51.204;22.552;2024-01-15T11:21:23;9.45;;;5.50;;
42964;SDS011;28604;51.204;22.552;2024-01-15T11:23:52;11.18;;;5.68;;
42964;SDS011;28604;51.204;22.552;2024-01-15T11:28:56;12.77;;;6.38;;
42964;SDS011;28604;51.204;22.552;2024-01-15T11:32:10;9.50;;;5.32;;
42964;SDS011;28604;51.204;22.552;2024-01-15T11:34:11;12.48;;;6.18;;
42964;SDS011;28604;51.204;22.552;2024-01-15T11:39:40;9.88;;;6.13;;
42964;SDS011;28604;51.204;22.552;2024-01-15T11:42:05;12.55;;;6.40;;
42964;SDS011;28604;51.204;22.552;2024-01-15T11:44:31;14.85;;;7.43;;
42964;SDS011;28604;51.204;22.552;2024-01-15T11:46:58;14.20;;;7.25;;
42964;SDS011;28604;51.204;22.552;2024-01-15T11:52:23;14.35;;;7.25;;
42964;SDS011;28604;51.204;22.552;2024-01-15T11:57:42;10.80;;;5.50;;
42964;SDS011;28604;51.204;22.552;2024-01-15T12:00:12;14.75;;;6.80;;
42964;SDS011;28604;51.204;22.552;2024-01-15T12:02:40;11.48;;;6.03;;
42964;SDS011;28604;51.204;22.552;2024-01-15T12:05:07;8.73;;;5.18;;
42964;SDS011;28604;51.204;22.552;2024-01-15T12:07:34;12.80;;;6.00;;
42964;SDS011;28604;51.204;22.552;2024-01-15T12:10:00;9.95;;;5.15;;
42964;SDS011;28604;51.204;22.552;2024-01-15T12:15:02;10.70;;;5.40;;
42964;SDS011;28604;51.204;22.552;2024-01-15T12:17:29;14.57;;;6.28;;
42964;SDS011;28604;51.204;22.552;2024-01-15T12:19:55;11.55;;;6.40;;
42964;SDS011;28604;51.204;22.552;2024-01-15T12:22:22;11.98;;;5.80;;
42964;SDS011;28604;51.204;22.552;2024-01-15T12:24:48;14.52;;;6.05;;
42964;SDS011;28604;51.204;22.552;2024-01-15T12:27:14;14.30;;;5.47;;
42964;SDS011;28604;51.204;22.552;2024-01-15T12:29:40;15.07;;;5.95;;
42964;SDS011;28604;51.204;22.552;2024-01-15T12:32:06;12.45;;;6.05;;
42964;SDS011;28604;51.204;22.552;2024-01-15T12:34:33;12.38;;;6.15;;
42964;SDS011;28604;51.204;22.552;2024-01-15T12:36:59;13.52;;;5.82;;
42964;SDS011;28604;51.204;22.552;2024-01-15T12:39:26;8.10;;;4.90;;
42964;SDS011;28604;51.204;22.552;2024-01-15T12:41:52;11.88;;;5.30;;
42964;SDS011;28604;51.204;22.552;2024-01-15T12:44:18;7.45;;;4.90;;
42964;SDS011;28604;51.204;22.552;2024-01-15T12:46:45;14.48;;;5.35;;
42964;SDS011;28604;51.204;22.552;2024-01-15T12:49:10;9.40;;;5.22;;
42964;SDS011;28604;51.204;22.552;2024-01-15T12:51:38;14.48;;;6.15;;
42964;SDS011;28604;51.204;22.552;2024-01-15T12:54:04;13.40;;;5.85;;
42964;SDS011;28604;51.204;22.552;2024-01-15T12:56:31;8.23;;;5.00;;
42964;SDS011;28604;51.204;22.552;2024-01-15T12:58:56;13.07;;;5.40;;
42964;SDS011;28604;51.204;22.552;2024-01-15T13:01:23;10.95;;;6.10;;
42964;SDS011;28604;51.204;22.552;2024-01-15T13:03:48;12.32;;;6.35;;
42964;SDS011;28604;51.204;22.552;2024-01-15T13:06:15;10.73;;;6.22;;
42964;SDS011;28604;51.204;22.552;2024-01-15T13:08:40;12.85;;;6.32;;
42964;SDS011;28604;51.204;22.552;2024-01-15T13:11:07;13.75;;;6.57;;
42964;SDS011;28604;51.204;22.552;2024-01-15T13:13:32;11.98;;;6.22;;
42964;SDS011;28604;51.204;22.552;2024-01-15T13:15:59;12.10;;;6.38;;
42964;SDS011;28604;51.204;22.552;2024-01-15T13:18:25;14.93;;;7.05;;
42964;SDS011;28604;51.204;22.552;2024-01-15T13:20:51;11.07;;;5.45;;
42964;SDS011;28604;51.204;22.552;2024-01-15T13:23:17;10.43;;;5.35;;
42964;SDS011;28604;51.204;22.552;2024-01-15T13:25:43;14.50;;;5.45;;
42964;SDS011;28604;51.204;22.552;2024-01-15T13:28:09;12.02;;;6.63;;
42964;SDS011;28604;51.204;22.552;2024-01-15T13:30:35;10.23;;;5.22;;
42964;SDS011;28604;51.204;22.552;2024-01-15T13:33:02;11.57;;;6.25;;
42964;SDS011;28604;51.204;22.552;2024-01-15T13:35:30;18.90;;;7.57;;
42964;SDS011;28604;51.204;22.552;2024-01-15T13:37:56;13.57;;;6.78;;
42964;SDS011;28604;51.204;22.552;2024-01-15T13:40:23;13.73;;;6.40;;
42964;SDS011;28604;51.204;22.552;2024-01-15T13:42:50;14.82;;;7.15;;
42964;SDS011;28604;51.204;22.552;2024-01-15T13:45:17;13.75;;;7.22;;
42964;SDS011;28604;51.204;22.552;2024-01-15T13:47:45;15.40;;;8.43;;
42964;SDS011;28604;51.204;22.552;2024-01-15T13:50:11;12.38;;;6.95;;
42964;SDS011;28604;51.204;22.552;2024-01-15T13:52:38;18.60;;;8.38;;
42964;SDS011;28604;51.204;22.552;2024-01-15T13:55:04;15.10;;;8.38;;
42964;SDS011;28604;51.204;22.552;2024-01-15T13:57:32;19.55;;;8.38;;
42964;SDS011;28604;51.204;22.552;2024-01-15T13:59:58;16.08;;;8.02;;
42964;SDS011;28604;51.204;22.552;2024-01-15T14:02:24;13.88;;;7.40;;
42964;SDS011;28604;51.204;22.552;2024-01-15T14:04:50;13.35;;;7.22;;
42964;SDS011;28604;51.204;22.552;2024-01-15T14:07:16;14.10;;;7.38;;
42964;SDS011;28604;51.204;22.552;2024-01-15T14:09:42;12.57;;;7.53;;
42964;SDS011;28604;51.204;22.552;2024-01-15T14:12:08;17.67;;;8.10;;
42964;SDS011;28604;51.204;22.552;2024-01-15T14:14:34;17.20;;;7.28;;
42964;SDS011;28604;51.204;22.552;2024-01-15T14:17:00;12.70;;;7.80;;
42964;SDS011;28604;51.204;22.552;2024-01-15T14:19:26;17.10;;;8.65;;
42964;SDS011;28604;51.204;22.552;2024-01-15T14:21:53;19.20;;;8.13;;
42964;SDS011;28604;51.204;22.552;2024-01-15T14:24:19;15.15;;;8.30;;
42964;SDS011;28604;51.204;22.552;2024-01-15T14:26:44;14.27;;;8.40;;
42964;SDS011;28604;51.204;22.552;2024-01-15T14:29:11;21.02;;;9.60;;
42964;SDS011;28604;51.204;22.552;2024-01-15T14:31:37;17.35;;;7.75;;
42964;SDS011;28604;51.204;22.552;2024-01-15T14:34:03;18.25;;;8.48;;
42964;SDS011;28604;51.204;22.552;2024-01-15T14:36:29;20.80;;;8.63;;